Emmeloord, Netherlands
Current Conditions -  °F | °C
As of 8:55 PM on Sunday 23 Nov 2014 (Local Time) from EHLW Reporting Station
Light Rain Light Rain  
Wind Chill: 52°   Ceiling: 500
Heat Index: 52°   Visibility: 1.8mi
Dew Point: 50°   Wind: 7mph
Humidity: 94%   Direction: 270°W
Pressure: 29.91"   Gusts: NA
Location:  52.71°N, 5.75°E
Report Text: EHLW 231955Z AUTO 27006KT 2900 R05/P3000 -RA BKN005 OVC007 11/10 Q1013 RERA REDZ YLO
Loading
Personal Weather Stations






























Interactive Weather Map New forecast layout! Learn more

10-Day Weather Forecast

Advertisements
Track Severe Weather on mobile